Weather observations for the past three days for
Macon County Airport
Metric (Imperial)
Date Time (edt) Wind (kph) Vis. (km) Weather Sky Cond. Temperature (ºC) Relative Humidity Wind Chill (°C) Heat Index (°C) Pressure Precipitation (cm)
Air Dwpt 6 hour altimeter (cm) sea level (mb) 1 hr 3 hr 6 hr
Max. Min.
04 03:15 Calm 16.09 Fair CLR 2 1.6 97% 76.5 0.0
04 02:55 Calm 16.09 Fair CLR 2.1 1.8 98% 76.5 0.0
04 02:35 Calm 16.09 Fair CLR 2.2 1.7 97% 76.5 0.0
04 02:15 Calm 16.09 Fair CLR 2.4 2 97% 76.5 0.0
04 01:55 Calm 16.09 Fair CLR 2.7 2.1 16.1 2.7 96% 76.53 0.0
04 01:35 Calm 16.09 Fair CLR 2.8 2.3 97% 76.53 0.0
04 01:15 Calm 16.09 Fair CLR 3.2 2.7 97% 76.53 0.0
04 00:55 Calm 16.09 Fair CLR 3.4 2.7 95% 76.53 0.0
04 00:35 Calm 16.09 Fair CLR 3.6 3 96% 76.53 0.0
04 00:15 Calm 16.09 Fair CLR 4.1 3.1 93% 76.5 0.0
03 23:55 Calm 16.09 Fair CLR 4.2 3.2 93% 76.48 0.0
03 23:35 Calm 16.09 Fair CLR 4.7 3.2 90% 76.45 0.0
03 23:15 Calm 16.09 Fair CLR 4.8 3.3 90% 76.45 0.0
03 22:55 Calm 16.09 Fair CLR 5.7 3.1 84% 76.45 0.0
03 22:35 Calm 16.09 Fair CLR 6 3.7 85% 76.48 0.0
03 22:15 Calm 16.09 Fair CLR 7 3.6 79% 76.45 0.0
03 21:55 Calm 16.09 Fair CLR 7.6 3.5 76% 76.43 0.0
03 21:35 Calm 16.09 Fair CLR 8.2 3.5 73% 76.4 0.0
03 21:15 Calm 16.09 Fair CLR 9.7 3.2 64% 76.4 0.0
03 20:55 W 6 16.09 Fair CLR 9.4 3.8 68% 76.38 0.0
03 20:35 Calm 16.09 Fair CLR 11.1 3.4 59% 76.35 0.0
03 20:15 W 7 16.09 Fair CLR 14.7 0.2 37% 76.35 0.0
03 19:55 N 9 16.09 Fair CLR 16.2 0 20.5 16.2 33% 76.35 0.0
03 19:35 N 11 16.09 Fair CLR 17.1 0 32% 76.33 0.0
03 19:15 N 13 16.09 Fair CLR 17.9 0.3 31% 76.33 0.0
03 18:55 N 13 16.09 Fair CLR 18.5 0.4 30% 76.33 0.0
03 18:35 N 7 16.09 Fair CLR 19 0.4 29% 76.3 0.0
03 18:15 N 13 16.09 Fair CLR 19.4 0.8 29% 76.33 0.0
03 17:55 NW 9 16.09 Fair CLR 19.8 1.1 29% 76.33 0.0
03 17:35 NW 9 16.09 Fair CLR 20.1 0.6 27% 76.33 0.0
03 17:15 NW 13 16.09 Fair CLR 20 -0.3 26% 76.33 0.0
03 16:55 N 13 16.09 Fair CLR 20.5 0.1 26% 76.35 0.0
03 16:35 Calm 16.09 Fair CLR 20.1 -0.1 26% 76.35 0.0
03 16:15 Calm 16.09 Fair CLR 19.4 -1.4 25% 76.35 0.0
03 15:55 E 7 16.09 Fair CLR 19.6 -0.1 27% 76.4 0.0
03 15:35 W 7 16.09 Fair CLR 18.9 -0.7 27% 76.43 0.0
03 15:15 NW 6 16.09 Fair CLR 18.7 -0.2 28% 76.45 0.0
03 14:55 NW 7 16.09 Fair CLR 18.6 0.1 29% 76.45 0.0
03 14:35 Calm 16.09 Fair CLR 17.8 -0.4 29% 76.48 0.0
03 14:15 Calm 16.09 Fair CLR 17.2 -0.4 30% 76.5 0.0
03 13:55 E 9 16.09 Fair CLR 17.3 0.5 17.3 1.7 32% 76.5 0.0
03 13:35 Calm 16.09 Fair CLR 16.2 0.1 34% 76.53 0.0
03 13:15 Calm 16.09 Fair CLR 16 0.7 36% 76.56 0.0
03 12:55 SE 6 16.09 Fair CLR 15.5 0.6 37% 76.58 0.0
03 12:35 E 7 16.09 Fair CLR 15.3 0.4 36% 76.61 0.0
03 12:15 NE 7 16.09 Fair CLR 14 0.1 39% 76.61 0.0
03 11:55 Calm 16.09 Fair CLR 13.2 -0.3 40% 76.63 0.0
03 11:35 NW 6 16.09 Fair CLR 12.9 0.2 42% 76.66 0.0
03 11:15 Calm 16.09 Fair CLR 12.9 0.4 43% 76.66 0.0
03 10:35 NE 11 16.09 Fair CLR 11.8 0.1 45% 76.66 0.0
03 10:15 Calm 16.09 Fair CLR 11.5 2.2 53% 76.66 0.0
03 09:55 Calm 16.09 Fair CLR 10.3 2.6 59% 76.66 0.0
03 09:35 Calm 16.09 Fair CLR 9 3.4 68% 76.66 0.0
03 09:15 Calm 16.09 Fair CLR 7.7 4 78% 76.66 0.0
03 08:55 Calm 16.09 Fair CLR 6.1 3.8 85% 76.66 0.0
03 08:35 Calm 16.09 Fair CLR 4.6 3.4 92% 76.66 0.0
03 08:15 Calm 16.09 Fair CLR 3.4 2.7 95% 76.66 0.0
03 07:55 Calm 16.09 Fair CLR 1.6 1.2 3.7 0 97% 76.63 0.0
03 07:35 Calm 16.09 Fair CLR 0.6 0.3 98% 76.61 0.0
03 07:15 Calm 8.05 Fog/Mist CLR 0 -0.2 99% 76.61 0.0
03 06:55 Calm 11.27 Fair CLR 0 -0.1 99% 76.58 0.0
03 06:35 Calm 16.09 Fair CLR 0 0 100% 76.58 0.0
03 06:15 Calm 16.09 Fair CLR 0.3 0 98% 76.56 0.0
03 05:55 Calm 11.27 Fair CLR 0.4 0.1 98% 76.53 0.0
03 05:35 Calm 11.27 Fair CLR 0.8 0.5 98% 76.5 0.0
03 05:15 Calm 16.09 Fair CLR 0.7 0.4 98% 76.5 0.0
03 04:55 Calm 16.09 Fair CLR 1 0.6 97% 76.48 0.0
03 04:35 Calm 16.09 Fair CLR 1.2 0.8 97% 76.48 0.0
03 04:15 Calm 16.09 Partly Cloudy SCT050 1.6 1.2 97% 76.45 0.0
03 03:55 Calm 16.09 Partly Cloudy SCT050 1.9 1.5 97% 76.45 0.0
03 03:35 Calm 16.09 Fair CLR 2.2 1.7 97% 76.43 0.0
03 03:15 Calm 16.09 Fair CLR 2.4 2 97% 76.43 0.0
03 02:55 Calm 16.09 Fair CLR 2.2 1.7 97% 76.43 0.0
03 02:35 Calm 16.09 Fair CLR 2.7 2.1 96% 76.4 0.0
03 02:15 Calm 16.09 Fair CLR 3.6 2.7 94% 76.4 0.0
03 01:55 Calm 16.09 Fair CLR 3.7 2.8 13 3.7 94% 76.4 0.0
03 01:35 Calm 16.09 Mostly Cloudy SCT070 BKN080 5.1 3.6 90% 76.4 0.0
03 01:15 Calm 16.09 Overcast SCT070 OVC080 5.6 3.5 87% 76.43 0.0
03 00:55 Calm 16.09 Overcast OVC085 5.5 3.6 88% 76.43 0.0
03 00:35 Calm 16.09 Overcast OVC085 5.5 3.4 87% 76.4 0.0
03 00:15 Calm 16.09 Overcast OVC095 5.5 3.2 85% 76.4 0.0
02 23:55 Calm 16.09 Overcast OVC095 4.7 2.9 88% 76.38 0.0
02 23:35 Calm 16.09 Partly Cloudy SCT095 4.3 2 85% 76.38 0.0
02 23:15 Calm 16.09 Fair CLR 4.1 2.3 88% 76.38 0.0
02 22:55 Calm 16.09 Fair CLR 4.1 2.4 89% 76.35 0.0
02 22:35 Calm 16.09 Fair CLR 4.9 2.2 83% 76.35 0.0
02 22:15 Calm 16.09 Fair CLR 5.4 1.9 78% 76.33 0.0
02 21:55 SW 6 16.09 Fair CLR 6.3 1.5 72% 76.3 0.0
02 21:35 SW 6 16.09 Fair CLR 6.8 1.7 70% 76.3 0.0
02 21:15 Calm 16.09 Fair CLR 8 0.8 61% 76.25 0.0
02 20:55 Calm 16.09 Fair CLR 10.4 -0.4 47% 76.25 0.0
02 20:35 N 7 16.09 Fair CLR 11.7 -1.7 40% 76.23 0.0
02 20:15 N 6 16.09 Partly Cloudy SCT070 12.6 -2.2 36% 76.2 0.0
02 19:55 N 6 16.09 Fair CLR 13 -2.6 17.8 12.8 34% 76.17 0.0
02 19:35 N 7 G 26 16.09 Fair CLR 14 -3.1 31% 76.15 0.0
02 19:15 NW 15 G 28 16.09 Fair CLR 14.5 -3.1 30% 76.15 0.0
02 18:55 NW 15 16.09 Fair CLR 15 -3.5 28% 76.15 0.0
02 18:35 NW 13 16.09 Fair CLR 15.5 -3.4 27% 76.15 0.0
02 18:15 NW 17 G 33 16.09 Fair CLR 15.7 -3.7 26% 76.12 0.0
02 17:55 NW 13 G 26 16.09 Fair CLR 16.1 -2.5 28% 76.1 0.0
02 17:35 NW 17 G 33 16.09 Fair CLR 16.2 -3.1 27% 76.07 0.0
02 17:15 NW 22 G 31 16.09 Fair CLR 16.9 -1.8 28% 76.05 0.0
02 16:55 NW 20 16.09 Fair CLR 17.1 -2.5 26% 76.02 0.0
02 16:35 N 15 G 35 16.09 Partly Cloudy SCT075 16.8 -3.2 25% 76.02 0.0
02 16:15 NW 22 G 33 16.09 Partly Cloudy SCT075 17.6 -2.6 25% 76 0.0
02 15:55 NW 11 G 31 16.09 Mostly Cloudy BKN075 16.3 -3.1 26% 76 0.0
02 15:35 N 13 16.09 Overcast OVC065 17.6 -0.3 30% 76.02 0.0
02 15:15 NW 13 16.09 Mostly Cloudy BKN065 16.1 0.1 34% 76.02 0.0
02 14:55 W 20 G 31 16.09 Mostly Cloudy BKN065 16.2 0.6 35% 76.02 0.0
02 14:35 W 13 16.09 Overcast OVC065 16.3 0.6 35% 76.02 0.0
02 14:15 NW 11 16.09 Overcast OVC065 16.7 1.1 35% 76.05 0.0
02 13:55 NW 7 16.09 Overcast OVC065 16.1 2.1 16.1 11 39% 76.05 0.0
02 13:35 N 7 16.09 Overcast OVC065 15.4 2.6 42% 76.07 0.0
02 13:15 NW 13 16.09 Overcast BKN050 OVC060 15.1 3.5 46% 76.1 0.0
02 12:55 W 11 16.09 Overcast OVC055 14.9 3.9 48% 76.1 0.0
02 12:35 W 11 16.09 Overcast SCT043 BKN055 OVC080 15 4.3 49% 76.12 0.0
02 12:15 W 7 16.09 Mostly Cloudy SCT040 SCT065 BKN080 15.9 5 49% 76.12 0.0
02 11:55 N 9 16.09 Mostly Cloudy SCT040 BKN065 15.1 4.4 49% 76.12 0.0
02 11:35 N 7 16.09 Mostly Cloudy BKN055 15.2 5.2 52% 76.12 0.0
02 11:15 N 6 16.09 Partly Cloudy SCT055 SCT070 14.6 6 57% 76.15 0.0
02 10:55 N 6 16.09 Fair CLR 13.4 5.6 59% 76.15 0.0
02 10:35 NW 9 16.09 Partly Cloudy SCT070 12.7 5.4 61% 76.15 0.0
02 10:15 W 7 16.09 Partly Cloudy SCT070 12.9 5.9 63% 76.12 0.0
02 09:55 Calm 16.09 Fair CLR 12.2 5.3 63% 76.12 0.0
02 09:35 NW 6 16.09 Partly Cloudy SCT065 12 5.5 65% 76.12 0.0
02 09:15 NW 7 16.09 Partly Cloudy SCT065 11.9 5.4 65% 76.15 0.0
02 08:55 NW 7 16.09 Fair CLR 11.5 5.3 66% 76.12 0.0
02 08:35 N 6 16.09 Partly Cloudy SCT110 11.5 5.2 66% 76.12 0.0
02 08:15 W 6 16.09 Partly Cloudy SCT110 11.2 5.5 68% 76.12 0.0
02 07:55 Calm 16.09 Fair CLR 10.9 5.4 13.4 10.6 69% 76.1 0.0
02 07:35 W 6 16.09 Fair CLR 11 4.9 66% 76.1 0.0
02 07:15 W 9 16.09 Partly Cloudy SCT120 11 4.7 65% 76.1 0.0
02 06:55 NW 11 16.09 Partly Cloudy SCT120 11 4.5 65% 76.05 0.0
02 06:35 W 7 16.09 Partly Cloudy SCT120 10.7 5.2 69% 76.05 0.0
02 06:15 W 9 16.09 Partly Cloudy SCT120 10.7 5 68% 76.05 0.0
02 05:55 W 6 16.09 Fair CLR 11.2 4.7 65% 76.05 0.0
02 05:35 NW 11 16.09 Partly Cloudy SCT120 11.5 4.6 63% 76.05 0.0
02 05:15 W 7 16.09 Partly Cloudy SCT120 11.5 4.9 64% 76.07 0.0
02 04:55 Calm 16.09 Fair CLR 11.8 4.6 62% 76.05 0.0
02 04:35 Calm 16.09 Partly Cloudy SCT120 12 4.7 61% 76.1 0.0
02 04:15 NW 9 16.09 Partly Cloudy SCT120 12 5 63% 76.1 0.0
02 03:55 NW 6 16.09 Partly Cloudy SCT120 12.3 5 61% 76.1 0.0
02 03:35 NW 9 16.09 Partly Cloudy SCT120 12.3 5.4 63% 76.1 0.0
02 03:15 NW 7 16.09 Mostly Cloudy BKN120 12.6 5.3 61% 76.07 0.0
02 02:35 NW 11 16.09 Fair CLR 13 5.5 61% 76.1 0.0
02 02:15 NW 9 16.09 Partly Cloudy SCT120 13.1 5.2 59% 76.1 0.0
02 01:55 NW 6 16.09 Mostly Cloudy BKN120 13.5 5 16.7 11.6 57% 76.1 0.0
02 01:35 NW 11 16.09 Mostly Cloudy BKN120 13.5 4.8 56% 76.12 0.0
02 01:15 W 6 16.09 Partly Cloudy SCT120 13.2 5.2 59% 76.12 0.0
02 00:55 Calm 16.09 Fair CLR 11.8 6.9 72% 76.12 0.0
02 00:35 NW 7 16.09 Fair CLR 13.1 5.7 61% 76.15 0.0
02 00:15 NW 7 16.09 Fair CLR 13 5.2 59% 76.12 0.0
01 23:55 Calm 16.09 Fair CLR 12.2 6.3 67% 76.12 0.0
01 23:35 Calm 16.09 Fair CLR 12.1 6.8 70% 76.15 0.0
01 23:15 Calm 16.09 Fair CLR 12 6.8 71% 76.15 0.0
01 22:55 Calm 16.09 Fair CLR 11.6 6.6 72% 76.17 0.0
01 22:35 Calm 16.09 Fair CLR 12.6 6 64% 76.17 0.0
01 22:15 NW 6 16.09 Fair CLR 14.4 3 47% 76.15 0.0
01 21:55 Calm 16.09 Fair CLR 13.9 4.3 53% 76.15 0.0
01 21:35 Calm 16.09 Fair CLR 13.8 4.8 55% 76.12 0.0
01 21:15 Calm 16.09 Fair CLR 15.5 1.9 40% 76.12 0.0
01 20:55 NW 7 16.09 Fair CLR 15.6 1.9 40% 76.07 0.0
01 20:35 NW 9 16.09 Fair CLR 16 1.5 38% 76.07 0.0
01 20:15 NW 9 16.09 Fair CLR 16.3 1.2 36% 76.07 0.0
01 19:55 NW 9 16.09 Fair CLR 16.7 1 19.6 16.7 35% 76.05 0.0
01 19:35 NW 9 16.09 Fair CLR 17 0.8 34% 76.02 0.0
01 19:15 NW 9 16.09 Fair CLR 17.6 0 31% 76 0.0
01 18:55 NW 9 16.09 Fair CLR 18.1 0.5 31% 76 0.0
01 18:35 N 15 16.09 Partly Cloudy SCT065 18.9 0.6 29% 76 0.0
01 18:15 N 7 16.09 Partly Cloudy SCT065 18.4 2.1 34% 76 0.0
01 17:55 N 11 16.09 Mostly Cloudy BKN065 18.7 3.8 37% 76 0.0
01 17:35 W 9 16.09 Mostly Cloudy BKN065 19.1 5 40% 76.02 0.0
01 17:15 NW 9 16.09 Mostly Cloudy BKN065 19.5 4.6 38% 76.02 0.0
01 16:55 W 11 16.09 Partly Cloudy SCT065 19.4 4.5 38% 76 0.0
01 16:35 SW 6 16.09 Fair CLR 19.2 5.3 40% 76.02 0.0
01 16:15 Calm 16.09 Fair CLR 19.1 5.9 42% 76.02 0.0
01 15:55 S 7 16.09 Fair CLR 19 5.4 41% 76.07 0.0
01 15:35 SE 7 16.09 Partly Cloudy SCT065 18.9 5.1 40% 76.07 0.0
01 15:15 SE 6 16.09 Fair CLR 19.1 4.9 39% 76.07 0.0
01 14:55 SE 9 16.09 Fair CLR 19.3 4.6 38% 76.07 0.0
01 14:35 SE 9 16.09 Fair CLR 19.1 3.9 37% 76.1 0.0
01 14:15 SW 6 16.09 Fair CLR 19.4 3.3 35% 76.1 0.0
01 13:55 Calm 16.09 Fair CLR 19.1 3.1 20 8.1 35% 76.1 0.0
01 13:35 Calm 16.09 Partly Cloudy SCT070 18.7 2.5 34% 76.12 0.0
01 13:15 E 7 16.09 Partly Cloudy SCT070 19.6 3.4 34% 76.12 0.0
01 12:55 Calm 16.09 Fair CLR 19.5 4 36% 76.15 0.0
01 12:35 Calm 16.09 Fair CLR 18.7 3.5 37% 76.17 0.0
01 12:15 Calm 16.09 Fair CLR 18.7 3.9 38% 76.17 0.0
01 11:55 SE 6 16.09 Fair CLR 17.7 2.8 37% 76.2 0.0
01 11:35 SE 7 16.09 Fair CLR 17.2 3.7 41% 76.23 0.0
01 11:15 Calm 16.09 Fair CLR 16.9 4 43% 76.23 0.0
01 10:55 Calm 16.09 Fair CLR 16.6 4.7 46% 76.23 0.0
01 10:35 Calm 16.09 Fair CLR 15.7 5 49% 76.23 0.0
01 10:15 E 6 16.09 Fair CLR 14.9 6.5 57% 76.23 0.0
01 09:55 E 6 16.09 Fair CLR 14.1 6.7 61% 76.23 0.0
01 09:35 NE 6 16.09 Fair CLR 13.2 7.1 67% 76.23 0.0
01 09:15 NE 6 16.09 Fair CLR 12.2 7.1 71% 76.23 0.0
01 08:55 Calm 16.09 Fair CLR 11.5 7.7 78% 76.23 0.0
01 08:35 Calm 16.09 Fair CLR 10.4 7.6 83% 76.23 0.0
01 08:15 Calm 16.09 Fair CLR 9 7.4 90% 76.23 0.0
01 07:55 Calm 16.09 Fair CLR 8 7 9.5 7 93% 76.2 0.0
01 07:35 Calm 16.09 Fair CLR 7.3 6.8 97% 76.2 0.0
01 07:15 Calm 16.09 Fair CLR 7 6.5 97% 76.2 0.0
01 06:55 Calm 16.09 Fair CLR 7.2 6.7 97% 76.17 0.0
01 06:35 Calm 16.09 Fair CLR 7.4 6.9 97% 76.17 0.0
01 06:15 Calm 16.09 Fair CLR 7.5 7 97% 76.17 0.0
01 05:55 Calm 16.09 Fair CLR 7.5 6.9 96% 76.17 0.0
01 05:35 Calm 16.09 Fair CLR 8.1 7.1 93% 76.17 0.0
01 05:15 Calm 16.09 Partly Cloudy SCT120 8.6 7.5 93% 76.17 0.0
01 04:55 Calm 16.09 Partly Cloudy SCT120 8.8 7.5 92% 76.17 0.0
01 04:35 Calm 16.09 Partly Cloudy SCT120 8.5 7.4 93% 76.15 0.0
01 04:15 Calm 16.09 Fair CLR 8.7 7.6 93% 76.17 0.0
01 03:55 Calm 16.09 Fair CLR 8.5 7.6 94% 76.15 0.0
Date Time (edt) Wind (kph) Vis. (km) Weather Sky Cond. Air Dwpt Max. Min. Relative Humidity Wind Chill (°C) Heat Index (°C) altimeter (cm) sea level (mb) 1 hr 3 hr 6 hr
6 hour
Temperature (ºC) Pressure Precipitation (cm)